Stanton, Minnesota
Current Conditions -  °F | °C
As of 10:14 AM on Sunday 25 Jan 2015 (Local Time) from KSYN Reporting Station
Overcast Overcast  
Wind Chill: 11°   Ceiling: 1700
Heat Index: 23°   Visibility: 10mi
Dew Point: 17°   Wind: 13mph
Humidity: 77%   Direction: 30°NNE
Pressure: 29.97"   Gusts: NA
Location:  44.3996°N, 92.9847°W
Report Text: KSYN 251614Z AUTO 03011KT 10SM OVC017 M05/M09 A2997 RMK AO2 T10511086
Loading
Personal Weather Stations






























Interactive Weather Map New forecast layout! Learn more

10-Day Weather Forecast

Advertisements
Track Severe Weather on mobile